N2855K VNLT-VNLK
Flight info
| Callsign | N2855K |
|---|---|
| Flight time | 1h 20m |
| Altitude | 13500 |
| Route | KTM |
| Aircraft | PC6P/L-SG/LB1 |
Departure
| Time | 2025-12-20 03:02 |
|---|---|
| Airport | Langtang Airport (VNLT) |
Arrival
| Time | 2025-12-20 04:23 |
|---|---|
| Airport | Tenzing-Hillary Airport (VNLK) |
| Time | Latitude | Longitude | Altitude | Speed | Heading |
|---|---|---|---|---|---|
| 2025-12-20 02:49 | 28.20032 | 85.58541 | 12910 ft | 0 kts | 259° |
| 2025-12-20 03:00 | 28.19912 | 85.58676 | 12905 ft | 15 kts | 106° |
| 2025-12-20 03:01 | 28.19864 | 85.58727 | 12902 ft | 9 kts | 214° |
| 2025-12-20 03:01 | 28.19857 | 85.58687 | 12898 ft | 0 kts | 302° |
| 2025-12-20 03:02 | 28.20010 | 85.58442 | 12888 ft | 60 kts | 307° |
| 2025-12-20 03:02 | 28.20484 | 85.57357 | 13009 ft | 86 kts | 296° |
| 2025-12-20 03:02 | 28.20713 | 85.56651 | 13030 ft | 100 kts | 286° |
| 2025-12-20 03:03 | 28.20981 | 85.54982 | 13096 ft | 116 kts | 283° |
| 2025-12-20 03:03 | 28.21280 | 85.53094 | 13055 ft | 124 kts | 279° |
| 2025-12-20 03:04 | 28.21260 | 85.50145 | 13062 ft | 127 kts | 259° |
| 2025-12-20 03:05 | 28.20802 | 85.48202 | 13041 ft | 129 kts | 255° |
| 2025-12-20 03:05 | 28.20064 | 85.46361 | 12978 ft | 130 kts | 237° |
| 2025-12-20 03:06 | 28.18780 | 85.44919 | 12924 ft | 129 kts | 221° |
| 2025-12-20 03:06 | 28.18105 | 85.44266 | 12949 ft | 126 kts | 220° |
| 2025-12-20 03:06 | 28.16822 | 85.42866 | 12785 ft | 136 kts | 234° |
| 2025-12-20 03:07 | 28.15986 | 85.40573 | 12633 ft | 132 kts | 264° |
| 2025-12-20 03:07 | 28.15759 | 85.38896 | 12653 ft | 126 kts | 264° |
| 2025-12-20 03:08 | 28.14739 | 85.36206 | 12676 ft | 125 kts | 242° |
| 2025-12-20 03:09 | 28.13861 | 85.34458 | 12612 ft | 129 kts | 241° |
| 2025-12-20 03:09 | 28.12982 | 85.32692 | 12597 ft | 126 kts | 241° |
| 2025-12-20 03:09 | 28.12549 | 85.31837 | 12588 ft | 127 kts | 242° |
| 2025-12-20 03:10 | 28.11601 | 85.30137 | 12526 ft | 129 kts | 238° |
| 2025-12-20 03:10 | 28.10624 | 85.28428 | 12453 ft | 131 kts | 239° |
| 2025-12-20 03:11 | 28.09171 | 85.25870 | 12367 ft | 128 kts | 238° |
| 2025-12-20 03:11 | 28.08688 | 85.25015 | 12323 ft | 131 kts | 238° |
| 2025-12-20 03:12 | 28.07030 | 85.22578 | 12119 ft | 138 kts | 221° |
| 2025-12-20 03:13 | 28.05520 | 85.21165 | 11886 ft | 143 kts | 220° |
| 2025-12-20 03:13 | 28.03905 | 85.19849 | 11566 ft | 144 kts | 208° |
| 2025-12-20 03:14 | 28.02091 | 85.18883 | 11351 ft | 144 kts | 206° |
| 2025-12-20 03:14 | 28.00277 | 85.17929 | 11070 ft | 143 kts | 206° |
| 2025-12-20 03:15 | 27.98465 | 85.16972 | 10827 ft | 144 kts | 205° |
| 2025-12-20 03:15 | 27.96665 | 85.15997 | 10586 ft | 144 kts | 205° |
| 2025-12-20 03:16 | 27.94870 | 85.15015 | 10375 ft | 144 kts | 206° |
| 2025-12-20 03:16 | 27.93087 | 85.14057 | 10257 ft | 138 kts | 206° |
| 2025-12-20 03:17 | 27.91401 | 85.13119 | 10227 ft | 133 kts | 214° |
| 2025-12-20 03:17 | 27.89920 | 85.11915 | 10210 ft | 129 kts | 216° |
| 2025-12-20 03:18 | 27.88640 | 85.10524 | 10219 ft | 128 kts | 229° |
| 2025-12-20 03:18 | 27.88037 | 85.09767 | 10201 ft | 129 kts | 229° |
| 2025-12-20 03:19 | 27.86402 | 85.07392 | 10187 ft | 128 kts | 238° |
| 2025-12-20 03:19 | 27.85417 | 85.05707 | 10165 ft | 129 kts | 238° |
| 2025-12-20 03:20 | 27.84158 | 85.04255 | 10154 ft | 130 kts | 219° |
| 2025-12-20 03:20 | 27.82641 | 85.03102 | 10019 ft | 138 kts | 205° |
| 2025-12-20 03:21 | 27.80734 | 85.02907 | 9704 ft | 143 kts | 162° |
| 2025-12-20 03:21 | 27.79150 | 85.04194 | 9399 ft | 142 kts | 134° |
| 2025-12-20 03:22 | 27.78001 | 85.05975 | 9167 ft | 137 kts | 118° |
| 2025-12-20 03:22 | 27.77095 | 85.07771 | 9149 ft | 128 kts | 119° |
| 2025-12-20 03:22 | 27.76656 | 85.08630 | 9162 ft | 126 kts | 118° |
| 2025-12-20 03:23 | 27.75819 | 85.10356 | 9162 ft | 125 kts | 108° |
| 2025-12-20 03:23 | 27.75245 | 85.12203 | 9172 ft | 125 kts | 108° |
| 2025-12-20 03:24 | 27.74350 | 85.14933 | 9200 ft | 124 kts | 110° |
| 2025-12-20 03:25 | 27.73737 | 85.16739 | 9208 ft | 124 kts | 110° |
| 2025-12-20 03:25 | 27.73109 | 85.18553 | 9209 ft | 124 kts | 110° |
| 2025-12-20 03:26 | 27.72482 | 85.20350 | 9220 ft | 123 kts | 110° |
| 2025-12-20 03:26 | 27.71846 | 85.22154 | 9221 ft | 124 kts | 110° |
| 2025-12-20 03:26 | 27.71554 | 85.22980 | 9470 ft | 103 kts | 109° |
| 2025-12-20 03:27 | 27.71019 | 85.24516 | 9589 ft | 111 kts | 109° |
| 2025-12-20 03:27 | 27.70424 | 85.26192 | 9587 ft | 119 kts | 111° |
| 2025-12-20 03:28 | 27.69487 | 85.28805 | 9586 ft | 121 kts | 111° |
| 2025-12-20 03:29 | 27.68883 | 85.30575 | 9584 ft | 121 kts | 111° |
| 2025-12-20 03:29 | 27.68227 | 85.32303 | 9582 ft | 119 kts | 112° |
| 2025-12-20 03:30 | 27.67554 | 85.33999 | 9583 ft | 119 kts | 113° |
| 2025-12-20 03:30 | 27.67203 | 85.34841 | 9584 ft | 119 kts | 115° |
| 2025-12-20 03:30 | 27.66427 | 85.36499 | 9584 ft | 120 kts | 117° |
| 2025-12-20 03:31 | 27.65655 | 85.38153 | 9585 ft | 119 kts | 116° |
| 2025-12-20 03:31 | 27.64968 | 85.39843 | 9591 ft | 119 kts | 112° |
| 2025-12-20 03:32 | 27.63926 | 85.42414 | 9586 ft | 121 kts | 114° |
| 2025-12-20 03:33 | 27.63213 | 85.44127 | 9593 ft | 120 kts | 114° |
| 2025-12-20 03:33 | 27.62855 | 85.44977 | 9598 ft | 120 kts | 114° |
| 2025-12-20 03:33 | 27.62137 | 85.46671 | 9602 ft | 120 kts | 114° |
| 2025-12-20 03:34 | 27.61409 | 85.48371 | 9603 ft | 120 kts | 114° |
| 2025-12-20 03:35 | 27.60326 | 85.50890 | 9616 ft | 119 kts | 115° |
| 2025-12-20 03:35 | 27.59601 | 85.52567 | 9618 ft | 119 kts | 115° |
| 2025-12-20 03:36 | 27.58876 | 85.54238 | 9632 ft | 118 kts | 115° |
| 2025-12-20 03:36 | 27.57804 | 85.56707 | 9655 ft | 116 kts | 116° |
| 2025-12-20 03:37 | 27.57445 | 85.57531 | 9643 ft | 119 kts | 116° |
| 2025-12-20 03:37 | 27.56716 | 85.59202 | 9632 ft | 118 kts | 116° |
| 2025-12-20 03:38 | 27.55997 | 85.60852 | 9642 ft | 118 kts | 116° |
| 2025-12-20 03:38 | 27.55275 | 85.62507 | 9656 ft | 117 kts | 116° |
| 2025-12-20 03:39 | 27.54573 | 85.64122 | 9747 ft | 113 kts | 116° |
| 2025-12-20 03:39 | 27.53867 | 85.65733 | 9749 ft | 118 kts | 117° |
| 2025-12-20 03:40 | 27.53108 | 85.67431 | 9663 ft | 121 kts | 117° |
| 2025-12-20 03:40 | 27.52364 | 85.69090 | 9675 ft | 117 kts | 117° |
| 2025-12-20 03:41 | 27.51626 | 85.70743 | 9657 ft | 119 kts | 116° |
| 2025-12-20 03:41 | 27.50879 | 85.72396 | 9655 ft | 118 kts | 116° |
| 2025-12-20 03:42 | 27.50145 | 85.74033 | 9662 ft | 118 kts | 117° |
| 2025-12-20 03:42 | 27.49778 | 85.74855 | 9658 ft | 117 kts | 117° |
| 2025-12-20 03:43 | 27.48689 | 85.77313 | 9645 ft | 119 kts | 116° |
| 2025-12-20 03:43 | 27.48310 | 85.78155 | 9605 ft | 122 kts | 116° |
| 2025-12-20 03:43 | 27.47546 | 85.79839 | 9581 ft | 120 kts | 116° |
| 2025-12-20 03:44 | 27.46401 | 85.82313 | 9573 ft | 119 kts | 117° |
| 2025-12-20 03:45 | 27.45654 | 85.83941 | 9586 ft | 115 kts | 117° |
| 2025-12-20 03:45 | 27.44941 | 85.85532 | 9621 ft | 115 kts | 116° |
| 2025-12-20 03:46 | 27.44213 | 85.87157 | 9615 ft | 117 kts | 116° |
| 2025-12-20 03:46 | 27.43456 | 85.88808 | 9581 ft | 119 kts | 117° |
| 2025-12-20 03:46 | 27.43072 | 85.89634 | 9572 ft | 119 kts | 117° |
| 2025-12-20 03:47 | 27.42691 | 85.90455 | 9571 ft | 119 kts | 116° |
| 2025-12-20 03:48 | 27.40348 | 85.95650 | 9624 ft | 123 kts | 116° |
| 2025-12-20 03:49 | 27.39553 | 85.97405 | 9590 ft | 127 kts | 116° |
| 2025-12-20 03:49 | 27.38737 | 85.99162 | 9560 ft | 126 kts | 117° |
| 2025-12-20 03:49 | 27.38336 | 86.00024 | 9583 ft | 123 kts | 116° |
| 2025-12-20 03:50 | 27.37543 | 86.01730 | 9589 ft | 124 kts | 117° |
| 2025-12-20 03:50 | 27.36774 | 86.03435 | 9636 ft | 122 kts | 116° |
| 2025-12-20 03:51 | 27.36004 | 86.05141 | 9635 ft | 123 kts | 116° |
| 2025-12-20 03:51 | 27.35211 | 86.06900 | 9568 ft | 128 kts | 116° |
| 2025-12-20 03:52 | 27.34000 | 86.09545 | 9530 ft | 124 kts | 117° |
| 2025-12-20 03:53 | 27.33228 | 86.11232 | 9572 ft | 121 kts | 116° |
| 2025-12-20 03:53 | 27.32844 | 86.12070 | 9574 ft | 122 kts | 116° |
| 2025-12-20 03:53 | 27.32078 | 86.13731 | 9625 ft | 117 kts | 116° |
| 2025-12-20 03:54 | 27.31354 | 86.15355 | 9680 ft | 116 kts | 116° |
| 2025-12-20 03:55 | 27.30215 | 86.17906 | 9632 ft | 130 kts | 116° |
| 2025-12-20 03:55 | 27.29402 | 86.19700 | 9564 ft | 127 kts | 116° |
| 2025-12-20 03:56 | 27.28574 | 86.21472 | 9506 ft | 127 kts | 116° |
| 2025-12-20 03:56 | 27.27347 | 86.24043 | 9507 ft | 128 kts | 117° |
| 2025-12-20 03:57 | 27.26915 | 86.24938 | 9437 ft | 132 kts | 116° |
| 2025-12-20 03:57 | 27.26053 | 86.26749 | 9390 ft | 129 kts | 116° |
| 2025-12-20 03:58 | 27.25260 | 86.28437 | 9405 ft | 115 kts | 116° |
| 2025-12-20 03:58 | 27.24540 | 86.29965 | 9483 ft | 108 kts | 116° |
| 2025-12-20 03:59 | 27.23807 | 86.31498 | 9520 ft | 114 kts | 116° |
| 2025-12-20 03:59 | 27.23045 | 86.33095 | 9567 ft | 119 kts | 116° |
| 2025-12-20 04:00 | 27.22236 | 86.34805 | 9510 ft | 129 kts | 116° |
| 2025-12-20 04:00 | 27.21419 | 86.36538 | 9501 ft | 121 kts | 116° |
| 2025-12-20 04:01 | 27.20606 | 86.38242 | 9499 ft | 126 kts | 115° |
| 2025-12-20 04:01 | 27.20181 | 86.40113 | 9477 ft | 122 kts | 97° |
| 2025-12-20 04:02 | 27.19948 | 86.41954 | 9516 ft | 119 kts | 97° |
| 2025-12-20 04:02 | 27.19761 | 86.43426 | 9570 ft | 120 kts | 97° |
| 2025-12-20 04:03 | 27.19601 | 86.45342 | 9517 ft | 125 kts | 85° |
| 2025-12-20 04:03 | 27.19736 | 86.46298 | 9504 ft | 125 kts | 79° |
| 2025-12-20 04:03 | 27.20038 | 86.48209 | 9482 ft | 126 kts | 79° |
| 2025-12-20 04:04 | 27.20515 | 86.51022 | 9510 ft | 119 kts | 73° |
| 2025-12-20 04:05 | 27.21138 | 86.52668 | 9605 ft | 113 kts | 63° |
| 2025-12-20 04:05 | 27.21870 | 86.54255 | 9654 ft | 115 kts | 63° |
| 2025-12-20 04:06 | 27.22620 | 86.55863 | 9668 ft | 118 kts | 63° |
| 2025-12-20 04:06 | 27.23592 | 86.57360 | 9680 ft | 119 kts | 41° |
| 2025-12-20 04:07 | 27.24978 | 86.58366 | 9727 ft | 121 kts | 31° |
| 2025-12-20 04:07 | 27.25715 | 86.58838 | 9716 ft | 121 kts | 31° |
| 2025-12-20 04:07 | 27.27157 | 86.59757 | 9779 ft | 119 kts | 31° |
| 2025-12-20 04:08 | 27.29400 | 86.61153 | 9732 ft | 126 kts | 28° |
| 2025-12-20 04:09 | 27.30980 | 86.62028 | 9689 ft | 125 kts | 28° |
| 2025-12-20 04:09 | 27.32491 | 86.62868 | 9753 ft | 120 kts | 28° |
| 2025-12-20 04:10 | 27.33984 | 86.63699 | 9797 ft | 120 kts | 28° |
| 2025-12-20 04:10 | 27.34735 | 86.64124 | 9783 ft | 121 kts | 29° |
| 2025-12-20 04:10 | 27.36190 | 86.65020 | 9844 ft | 117 kts | 31° |
| 2025-12-20 04:11 | 27.37617 | 86.65912 | 9883 ft | 120 kts | 31° |
| 2025-12-20 04:11 | 27.39151 | 86.66859 | 9781 ft | 127 kts | 30° |
| 2025-12-20 04:12 | 27.41622 | 86.67623 | 9841 ft | 121 kts | 15° |
| 2025-12-20 04:13 | 27.43278 | 86.68012 | 9849 ft | 122 kts | 14° |
| 2025-12-20 04:13 | 27.44933 | 86.68423 | 9862 ft | 122 kts | 14° |
| 2025-12-20 04:14 | 27.46600 | 86.68851 | 9832 ft | 123 kts | 14° |
| 2025-12-20 04:14 | 27.47434 | 86.69063 | 9831 ft | 123 kts | 13° |
| 2025-12-20 04:14 | 27.49141 | 86.69089 | 9824 ft | 124 kts | 359° |
| 2025-12-20 04:15 | 27.51672 | 86.68885 | 9911 ft | 122 kts | 359° |
| 2025-12-20 04:15 | 27.52522 | 86.68740 | 9912 ft | 125 kts | 351° |
| 2025-12-20 04:16 | 27.55019 | 86.67904 | 9937 ft | 126 kts | 355° |
| 2025-12-20 04:17 | 27.56723 | 86.67831 | 9888 ft | 120 kts | 5° |
| 2025-12-20 04:17 | 27.58351 | 86.67990 | 9899 ft | 119 kts | 11° |
| 2025-12-20 04:17 | 27.59165 | 86.68082 | 9934 ft | 117 kts | 4° |
| 2025-12-20 04:18 | 27.60735 | 86.68207 | 10055 ft | 107 kts | 12° |
| 2025-12-20 04:18 | 27.62123 | 86.68505 | 10203 ft | 91 kts | 13° |
| 2025-12-20 04:19 | 27.63364 | 86.68799 | 10309 ft | 92 kts | 18° |
| 2025-12-20 04:19 | 27.64686 | 86.69337 | 10293 ft | 105 kts | 18° |
| 2025-12-20 04:20 | 27.66589 | 86.70091 | 10391 ft | 99 kts | 36° |
| 2025-12-20 04:21 | 27.67470 | 86.70968 | 10087 ft | 83 kts | 50° |
| 2025-12-20 04:21 | 27.68216 | 86.72064 | 9358 ft | 88 kts | 59° |
| 2025-12-20 04:21 | 27.68485 | 86.72576 | 9269 ft | 60 kts | 59° |
| 2025-12-20 04:22 | 27.68700 | 86.72984 | 9429 ft | 8 kts | 59° |
| 2025-12-20 04:22 | 27.68775 | 86.73135 | 9485 ft | 8 kts | 81° |
| 2025-12-20 04:23 | 27.68763 | 86.73173 | 9488 ft | 0 kts | 116° |